Terminal Aerodrome Forecast
Issued by NWS

Home | Current Version | Previous Version | Text Only | Print | Product List | Glossary On
Versions: 1 2 3 4 5 6 7 8 9 10 11 12 13 14
000
FTUS41 KBTV 062320
TAFMSS
TAF
KMSS 062320Z 0700/0724 23015G25KT P6SM SCT150
     FM070300 22012KT P6SM SCT120 BKN150
     FM070900 22013KT P6SM VCSH SCT025 OVC050
     FM071300 23012G20KT 5SM -SN BR OVC025
     FM071900 23010G22KT 3SM -SN BR OVC020=

USA.gov is the U.S. government's official web portal to all federal, state and local government web resources and services.